sensor_id;sensor_type;location;lat;lon;timestamp;P1;durP1;ratioP1;P2;durP2;ratioP2
11735;SDS011;5924;51.398;7.088;2023-05-10T00:02:51;4.93;;;4.20;;
11735;SDS011;5924;51.398;7.088;2023-05-10T00:05:16;4.60;;;4.30;;
11735;SDS011;5924;51.398;7.088;2023-05-10T00:07:42;5.67;;;4.47;;
11735;SDS011;5924;51.398;7.088;2023-05-10T00:10:09;7.23;;;5.17;;
11735;SDS011;5924;51.398;7.088;2023-05-10T00:12:36;8.10;;;5.00;;
11735;SDS011;5924;51.398;7.088;2023-05-10T00:15:01;5.73;;;5.23;;
11735;SDS011;5924;51.398;7.088;2023-05-10T00:17:28;6.30;;;5.80;;
11735;SDS011;5924;51.398;7.088;2023-05-10T00:19:53;5.60;;;5.17;;
11735;SDS011;5924;51.398;7.088;2023-05-10T00:22:19;8.53;;;6.27;;
11735;SDS011;5924;51.398;7.088;2023-05-10T00:24:45;8.83;;;5.80;;
11735;SDS011;5924;51.398;7.088;2023-05-10T00:27:10;9.40;;;6.23;;
11735;SDS011;5924;51.398;7.088;2023-05-10T00:29:36;13.33;;;6.67;;
11735;SDS011;5924;51.398;7.088;2023-05-10T00:32:02;7.57;;;6.20;;
11735;SDS011;5924;51.398;7.088;2023-05-10T00:34:27;9.73;;;6.60;;
11735;SDS011;5924;51.398;7.088;2023-05-10T00:36:53;10.93;;;7.13;;
11735;SDS011;5924;51.398;7.088;2023-05-10T00:39:19;8.23;;;6.23;;
11735;SDS011;5924;51.398;7.088;2023-05-10T00:41:45;10.10;;;6.60;;
11735;SDS011;5924;51.398;7.088;2023-05-10T00:44:10;13.40;;;6.27;;
11735;SDS011;5924;51.398;7.088;2023-05-10T00:46:36;9.10;;;4.97;;
11735;SDS011;5924;51.398;7.088;2023-05-10T00:49:02;8.10;;;5.70;;
11735;SDS011;5924;51.398;7.088;2023-05-10T00:51:28;5.97;;;4.97;;
11735;SDS011;5924;51.398;7.088;2023-05-10T00:53:53;11.33;;;5.60;;
11735;SDS011;5924;51.398;7.088;2023-05-10T00:56:21;8.33;;;6.53;;
11735;SDS011;5924;51.398;7.088;2023-05-10T00:58:48;12.00;;;6.00;;
11735;SDS011;5924;51.398;7.088;2023-05-10T01:01:14;11.17;;;6.83;;
11735;SDS011;5924;51.398;7.088;2023-05-10T01:03:40;9.00;;;6.20;;
11735;SDS011;5924;51.398;7.088;2023-05-10T01:06:06;10.30;;;7.55;;
11735;SDS011;5924;51.398;7.088;2023-05-10T01:15:16;16.77;;;8.43;;
11735;SDS011;5924;51.398;7.088;2023-05-10T01:17:43;11.07;;;8.67;;
11735;SDS011;5924;51.398;7.088;2023-05-10T01:20:11;14.27;;;9.60;;
11735;SDS011;5924;51.398;7.088;2023-05-10T01:33:26;20.23;;;10.43;;
11735;SDS011;5924;51.398;7.088;2023-05-10T01:41:40;15.63;;;10.38;;
11735;SDS011;5924;51.398;7.088;2023-05-10T01:44:39;13.70;;;9.60;;
11735;SDS011;5924;51.398;7.088;2023-05-10T01:47:12;17.95;;;9.95;;
11735;SDS011;5924;51.398;7.088;2023-05-10T01:49:49;15.40;;;9.47;;
11735;SDS011;5924;51.398;7.088;2023-05-10T01:52:18;20.50;;;11.83;;
11735;SDS011;5924;51.398;7.088;2023-05-10T01:55:06;19.73;;;11.50;;
11735;SDS011;5924;51.398;7.088;2023-05-10T01:57:37;24.20;;;12.23;;
11735;SDS011;5924;51.398;7.088;2023-05-10T02:00:06;17.53;;;9.80;;
11735;SDS011;5924;51.398;7.088;2023-05-10T02:02:36;21.87;;;12.60;;
11735;SDS011;5924;51.398;7.088;2023-05-10T02:05:04;23.23;;;12.73;;
11735;SDS011;5924;51.398;7.088;2023-05-10T02:07:31;20.90;;;11.30;;
11735;SDS011;5924;51.398;7.088;2023-05-10T02:10:00;25.00;;;11.53;;
11735;SDS011;5924;51.398;7.088;2023-05-10T02:12:31;18.80;;;11.30;;
11735;SDS011;5924;51.398;7.088;2023-05-10T02:15:00;16.92;;;10.50;;
11735;SDS011;5924;51.398;7.088;2023-05-10T02:17:30;14.30;;;9.20;;
11735;SDS011;5924;51.398;7.088;2023-05-10T02:19:56;15.30;;;10.70;;
11735;SDS011;5924;51.398;7.088;2023-05-10T02:22:25;14.00;;;8.70;;
11735;SDS011;5924;51.398;7.088;2023-05-10T02:24:53;16.92;;;10.60;;
11735;SDS011;5924;51.398;7.088;2023-05-10T02:27:23;16.60;;;9.37;;
11735;SDS011;5924;51.398;7.088;2023-05-10T02:29:50;17.90;;;9.47;;
11735;SDS011;5924;51.398;7.088;2023-05-10T02:32:17;18.70;;;9.60;;
11735;SDS011;5924;51.398;7.088;2023-05-10T02:34:44;12.50;;;8.90;;
11735;SDS011;5924;51.398;7.088;2023-05-10T02:37:12;27.30;;;11.07;;
11735;SDS011;5924;51.398;7.088;2023-05-10T02:39:40;14.43;;;10.40;;
11735;SDS011;5924;51.398;7.088;2023-05-10T02:42:11;23.03;;;10.60;;
11735;SDS011;5924;51.398;7.088;2023-05-10T02:44:47;19.33;;;10.15;;
11735;SDS011;5924;51.398;7.088;2023-05-10T02:47:15;16.63;;;9.17;;
11735;SDS011;5924;51.398;7.088;2023-05-10T02:49:41;17.97;;;11.13;;
11735;SDS011;5924;51.398;7.088;2023-05-10T02:52:07;17.93;;;10.30;;
11735;SDS011;5924;51.398;7.088;2023-05-10T02:54:41;13.30;;;8.83;;
11735;SDS011;5924;51.398;7.088;2023-05-10T02:57:20;14.35;;;9.38;;
11735;SDS011;5924;51.398;7.088;2023-05-10T02:59:51;13.90;;;8.97;;
11735;SDS011;5924;51.398;7.088;2023-05-10T03:02:17;17.17;;;9.47;;
11735;SDS011;5924;51.398;7.088;2023-05-10T03:04:42;20.07;;;10.13;;
11735;SDS011;5924;51.398;7.088;2023-05-10T03:07:08;17.30;;;10.10;;
11735;SDS011;5924;51.398;7.088;2023-05-10T03:09:34;17.90;;;9.50;;
11735;SDS011;5924;51.398;7.088;2023-05-10T03:17:10;20.10;;;10.38;;
11735;SDS011;5924;51.398;7.088;2023-05-10T03:19:58;19.90;;;11.10;;
11735;SDS011;5924;51.398;7.088;2023-05-10T03:22:36;15.13;;;9.77;;
11735;SDS011;5924;51.398;7.088;2023-05-10T03:25:04;17.60;;;12.03;;
11735;SDS011;5924;51.398;7.088;2023-05-10T03:27:31;15.90;;;9.00;;
11735;SDS011;5924;51.398;7.088;2023-05-10T03:29:58;17.03;;;9.57;;
11735;SDS011;5924;51.398;7.088;2023-05-10T03:32:26;16.43;;;10.03;;
11735;SDS011;5924;51.398;7.088;2023-05-10T03:34:55;16.07;;;9.90;;
11735;SDS011;5924;51.398;7.088;2023-05-10T03:37:20;15.07;;;8.60;;
11735;SDS011;5924;51.398;7.088;2023-05-10T03:39:46;15.43;;;9.80;;
11735;SDS011;5924;51.398;7.088;2023-05-10T03:42:12;16.00;;;8.57;;
11735;SDS011;5924;51.398;7.088;2023-05-10T03:44:40;15.00;;;9.17;;
11735;SDS011;5924;51.398;7.088;2023-05-10T03:47:06;11.57;;;8.40;;
11735;SDS011;5924;51.398;7.088;2023-05-10T03:49:31;13.33;;;7.80;;
11735;SDS011;5924;51.398;7.088;2023-05-10T03:51:57;17.63;;;8.30;;
11735;SDS011;5924;51.398;7.088;2023-05-10T03:54:23;15.47;;;9.80;;
11735;SDS011;5924;51.398;7.088;2023-05-10T03:56:48;14.67;;;9.23;;
11735;SDS011;5924;51.398;7.088;2023-05-10T03:59:14;18.00;;;9.50;;
11735;SDS011;5924;51.398;7.088;2023-05-10T04:01:40;12.57;;;8.00;;
11735;SDS011;5924;51.398;7.088;2023-05-10T04:04:05;14.80;;;9.13;;
11735;SDS011;5924;51.398;7.088;2023-05-10T04:06:31;18.27;;;9.73;;
11735;SDS011;5924;51.398;7.088;2023-05-10T04:08:57;22.47;;;11.07;;
11735;SDS011;5924;51.398;7.088;2023-05-10T04:11:24;18.87;;;10.73;;
11735;SDS011;5924;51.398;7.088;2023-05-10T04:13:50;22.50;;;10.47;;
11735;SDS011;5924;51.398;7.088;2023-05-10T04:16:16;21.80;;;10.77;;
11735;SDS011;5924;51.398;7.088;2023-05-10T04:18:41;17.00;;;9.20;;
11735;SDS011;5924;51.398;7.088;2023-05-10T04:21:11;17.20;;;9.73;;
11735;SDS011;5924;51.398;7.088;2023-05-10T04:23:38;22.27;;;10.73;;
11735;SDS011;5924;51.398;7.088;2023-05-10T04:26:04;23.80;;;10.63;;
11735;SDS011;5924;51.398;7.088;2023-05-10T04:28:29;27.00;;;11.30;;
11735;SDS011;5924;51.398;7.088;2023-05-10T04:31:02;22.10;;;10.77;;
11735;SDS011;5924;51.398;7.088;2023-05-10T04:33:28;20.07;;;10.63;;
11735;SDS011;5924;51.398;7.088;2023-05-10T04:35:54;30.20;;;13.77;;
11735;SDS011;5924;51.398;7.088;2023-05-10T04:38:20;35.63;;;14.20;;
11735;SDS011;5924;51.398;7.088;2023-05-10T04:40:46;31.63;;;14.20;;
11735;SDS011;5924;51.398;7.088;2023-05-10T04:43:11;40.67;;;15.83;;
11735;SDS011;5924;51.398;7.088;2023-05-10T04:45:37;37.90;;;14.43;;
11735;SDS011;5924;51.398;7.088;2023-05-10T04:48:03;39.50;;;14.20;;
11735;SDS011;5924;51.398;7.088;2023-05-10T04:50:28;37.43;;;14.63;;
11735;SDS011;5924;51.398;7.088;2023-05-10T04:52:54;35.07;;;14.40;;
11735;SDS011;5924;51.398;7.088;2023-05-10T04:55:20;37.90;;;14.47;;
11735;SDS011;5924;51.398;7.088;2023-05-10T04:57:46;41.43;;;15.07;;
11735;SDS011;5924;51.398;7.088;2023-05-10T05:00:12;41.40;;;16.53;;
11735;SDS011;5924;51.398;7.088;2023-05-10T05:02:39;46.67;;;15.20;;
11735;SDS011;5924;51.398;7.088;2023-05-10T05:05:09;44.28;;;15.32;;
11735;SDS011;5924;51.398;7.088;2023-05-10T05:07:34;46.90;;;17.00;;
11735;SDS011;5924;51.398;7.088;2023-05-10T05:10:00;44.43;;;15.07;;
11735;SDS011;5924;51.398;7.088;2023-05-10T05:12:25;43.63;;;17.00;;
11735;SDS011;5924;51.398;7.088;2023-05-10T05:14:51;38.57;;;14.80;;
11735;SDS011;5924;51.398;7.088;2023-05-10T05:17:17;44.70;;;16.90;;
11735;SDS011;5924;51.398;7.088;2023-05-10T05:19:42;37.23;;;15.17;;
11735;SDS011;5924;51.398;7.088;2023-05-10T05:22:08;41.00;;;15.67;;
11735;SDS011;5924;51.398;7.088;2023-05-10T05:24:37;46.03;;;18.50;;
11735;SDS011;5924;51.398;7.088;2023-05-10T05:27:06;47.43;;;18.30;;
11735;SDS011;5924;51.398;7.088;2023-05-10T05:29:31;44.30;;;17.10;;
11735;SDS011;5924;51.398;7.088;2023-05-10T05:31:57;57.93;;;19.27;;
11735;SDS011;5924;51.398;7.088;2023-05-10T05:34:23;61.93;;;20.10;;
11735;SDS011;5924;51.398;7.088;2023-05-10T05:36:49;57.03;;;21.40;;
11735;SDS011;5924;51.398;7.088;2023-05-10T05:39:15;57.00;;;22.03;;
11735;SDS011;5924;51.398;7.088;2023-05-10T05:41:40;60.80;;;22.73;;
11735;SDS011;5924;51.398;7.088;2023-05-10T05:44:07;54.70;;;20.00;;
11735;SDS011;5924;51.398;7.088;2023-05-10T05:46:33;42.17;;;18.87;;
11735;SDS011;5924;51.398;7.088;2023-05-10T05:48:58;56.07;;;21.47;;
11735;SDS011;5924;51.398;7.088;2023-05-10T05:51:24;53.03;;;20.53;;
11735;SDS011;5924;51.398;7.088;2023-05-10T05:53:50;58.73;;;20.77;;
11735;SDS011;5924;51.398;7.088;2023-05-10T05:56:15;56.83;;;21.20;;
11735;SDS011;5924;51.398;7.088;2023-05-10T05:58:42;67.43;;;21.90;;
11735;SDS011;5924;51.398;7.088;2023-05-10T06:01:08;59.67;;;21.50;;
11735;SDS011;5924;51.398;7.088;2023-05-10T06:03:34;51.87;;;20.30;;
11735;SDS011;5924;51.398;7.088;2023-05-10T06:05:59;51.87;;;20.50;;
11735;SDS011;5924;51.398;7.088;2023-05-10T06:08:25;51.47;;;20.80;;
11735;SDS011;5924;51.398;7.088;2023-05-10T06:10:51;45.70;;;19.10;;
11735;SDS011;5924;51.398;7.088;2023-05-10T06:13:16;37.27;;;18.47;;
11735;SDS011;5924;51.398;7.088;2023-05-10T06:15:42;48.13;;;18.87;;
11735;SDS011;5924;51.398;7.088;2023-05-10T06:18:08;45.00;;;18.73;;
11735;SDS011;5924;51.398;7.088;2023-05-10T06:20:33;45.17;;;19.20;;
11735;SDS011;5924;51.398;7.088;2023-05-10T06:22:59;34.77;;;17.50;;
11735;SDS011;5924;51.398;7.088;2023-05-10T06:25:25;36.57;;;16.90;;
11735;SDS011;5924;51.398;7.088;2023-05-10T06:27:50;45.37;;;18.73;;
11735;SDS011;5924;51.398;7.088;2023-05-10T06:30:20;38.90;;;18.40;;
11735;SDS011;5924;51.398;7.088;2023-05-10T06:32:48;34.60;;;17.67;;
11735;SDS011;5924;51.398;7.088;2023-05-10T06:35:13;42.83;;;19.37;;
11735;SDS011;5924;51.398;7.088;2023-05-10T06:37:39;43.97;;;19.43;;
11735;SDS011;5924;51.398;7.088;2023-05-10T06:40:05;38.33;;;18.87;;
11735;SDS011;5924;51.398;7.088;2023-05-10T06:42:31;39.67;;;19.67;;
11735;SDS011;5924;51.398;7.088;2023-05-10T06:44:57;45.37;;;20.50;;
11735;SDS011;5924;51.398;7.088;2023-05-10T06:47:23;43.40;;;19.70;;
11735;SDS011;5924;51.398;7.088;2023-05-10T06:49:48;46.30;;;19.43;;
11735;SDS011;5924;51.398;7.088;2023-05-10T06:52:14;47.10;;;21.00;;
11735;SDS011;5924;51.398;7.088;2023-05-10T06:54:39;48.13;;;21.07;;
11735;SDS011;5924;51.398;7.088;2023-05-10T06:57:05;41.87;;;20.50;;
11735;SDS011;5924;51.398;7.088;2023-05-10T06:59:31;54.50;;;23.07;;
11735;SDS011;5924;51.398;7.088;2023-05-10T07:01:57;41.00;;;20.30;;
11735;SDS011;5924;51.398;7.088;2023-05-10T07:04:22;48.60;;;23.00;;
11735;SDS011;5924;51.398;7.088;2023-05-10T07:06:48;50.00;;;23.10;;
11735;SDS011;5924;51.398;7.088;2023-05-10T07:09:14;49.13;;;22.37;;
11735;SDS011;5924;51.398;7.088;2023-05-10T07:11:40;51.97;;;22.40;;
11735;SDS011;5924;51.398;7.088;2023-05-10T07:14:06;44.23;;;22.07;;
11735;SDS011;5924;51.398;7.088;2023-05-10T07:16:32;48.63;;;22.20;;
11735;SDS011;5924;51.398;7.088;2023-05-10T07:18:57;56.40;;;24.40;;
11735;SDS011;5924;51.398;7.088;2023-05-10T07:21:23;54.90;;;23.03;;
11735;SDS011;5924;51.398;7.088;2023-05-10T07:23:49;52.90;;;22.33;;
11735;SDS011;5924;51.398;7.088;2023-05-10T07:26:15;48.93;;;21.20;;
11735;SDS011;5924;51.398;7.088;2023-05-10T07:28:41;44.13;;;19.73;;
11735;SDS011;5924;51.398;7.088;2023-05-10T07:31:07;34.80;;;18.20;;
11735;SDS011;5924;51.398;7.088;2023-05-10T07:33:32;46.07;;;19.70;;
11735;SDS011;5924;51.398;7.088;2023-05-10T07:35:58;41.73;;;20.87;;
11735;SDS011;5924;51.398;7.088;2023-05-10T07:38:24;38.93;;;18.07;;
11735;SDS011;5924;51.398;7.088;2023-05-10T07:40:49;36.73;;;17.73;;
11735;SDS011;5924;51.398;7.088;2023-05-10T07:43:15;36.37;;;16.93;;
11735;SDS011;5924;51.398;7.088;2023-05-10T07:45:41;37.10;;;15.50;;
11735;SDS011;5924;51.398;7.088;2023-05-10T07:48:06;36.30;;;17.60;;
11735;SDS011;5924;51.398;7.088;2023-05-10T07:50:32;36.03;;;17.20;;
11735;SDS011;5924;51.398;7.088;2023-05-10T07:52:58;33.80;;;16.53;;
11735;SDS011;5924;51.398;7.088;2023-05-10T07:55:23;44.90;;;17.40;;
11735;SDS011;5924;51.398;7.088;2023-05-10T07:57:49;46.03;;;18.10;;
11735;SDS011;5924;51.398;7.088;2023-05-10T08:00:17;37.50;;;16.33;;
11735;SDS011;5924;51.398;7.088;2023-05-10T08:02:44;46.50;;;16.67;;
11735;SDS011;5924;51.398;7.088;2023-05-10T08:05:09;34.20;;;15.10;;
11735;SDS011;5924;51.398;7.088;2023-05-10T08:07:35;36.90;;;16.47;;
11735;SDS011;5924;51.398;7.088;2023-05-10T08:10:02;37.20;;;17.57;;
11735;SDS011;5924;51.398;7.088;2023-05-10T08:12:28;39.20;;;17.03;;
11735;SDS011;5924;51.398;7.088;2023-05-10T08:14:54;36.40;;;16.00;;
11735;SDS011;5924;51.398;7.088;2023-05-10T08:17:22;49.63;;;16.57;;
11735;SDS011;5924;51.398;7.088;2023-05-10T08:19:50;33.07;;;15.47;;
11735;SDS011;5924;51.398;7.088;2023-05-10T08:22:16;29.38;;;13.43;;
11735;SDS011;5924;51.398;7.088;2023-05-10T08:24:41;28.83;;;14.97;;
11735;SDS011;5924;51.398;7.088;2023-05-10T08:27:08;24.43;;;12.47;;
11735;SDS011;5924;51.398;7.088;2023-05-10T08:29:33;23.70;;;12.73;;
11735;SDS011;5924;51.398;7.088;2023-05-10T08:31:59;22.10;;;12.00;;
11735;SDS011;5924;51.398;7.088;2023-05-10T08:34:26;21.17;;;10.53;;
11735;SDS011;5924;51.398;7.088;2023-05-10T08:36:52;17.47;;;10.00;;
11735;SDS011;5924;51.398;7.088;2023-05-10T08:39:17;13.80;;;10.38;;
11735;SDS011;5924;51.398;7.088;2023-05-10T08:41:43;13.67;;;9.10;;
11735;SDS011;5924;51.398;7.088;2023-05-10T08:44:11;15.57;;;9.77;;
11735;SDS011;5924;51.398;7.088;2023-05-10T08:46:37;15.37;;;9.37;;
11735;SDS011;5924;51.398;7.088;2023-05-10T08:49:09;18.75;;;10.85;;
11735;SDS011;5924;51.398;7.088;2023-05-10T08:51:43;17.17;;;10.50;;
11735;SDS011;5924;51.398;7.088;2023-05-10T08:54:12;23.02;;;12.10;;
11735;SDS011;5924;51.398;7.088;2023-05-10T08:56:38;25.83;;;12.50;;
11735;SDS011;5924;51.398;7.088;2023-05-10T08:59:04;19.43;;;11.80;;
11735;SDS011;5924;51.398;7.088;2023-05-10T09:01:30;18.57;;;11.90;;
11735;SDS011;5924;51.398;7.088;2023-05-10T09:03:57;12.93;;;9.83;;
11735;SDS011;5924;51.398;7.088;2023-05-10T09:06:23;19.17;;;11.07;;
11735;SDS011;5924;51.398;7.088;2023-05-10T09:08:49;20.80;;;11.60;;
11735;SDS011;5924;51.398;7.088;2023-05-10T09:11:17;20.17;;;12.30;;
11735;SDS011;5924;51.398;7.088;2023-05-10T09:13:42;21.80;;;11.23;;
11735;SDS011;5924;51.398;7.088;2023-05-10T09:16:09;21.07;;;10.70;;
11735;SDS011;5924;51.398;7.088;2023-05-10T09:18:35;24.83;;;11.40;;
11735;SDS011;5924;51.398;7.088;2023-05-10T09:21:00;23.87;;;11.87;;
11735;SDS011;5924;51.398;7.088;2023-05-10T09:23:26;26.93;;;12.90;;
11735;SDS011;5924;51.398;7.088;2023-05-10T09:26:03;25.57;;;12.63;;
11735;SDS011;5924;51.398;7.088;2023-05-10T09:31:42;30.60;;;13.33;;
11735;SDS011;5924;51.398;7.088;2023-05-10T09:34:28;23.90;;;12.27;;
11735;SDS011;5924;51.398;7.088;2023-05-10T09:39:57;21.35;;;11.55;;
11735;SDS011;5924;51.398;7.088;2023-05-10T09:42:23;33.33;;;14.30;;
11735;SDS011;5924;51.398;7.088;2023-05-10T09:44:49;24.67;;;13.40;;
11735;SDS011;5924;51.398;7.088;2023-05-10T09:47:17;29.00;;;15.50;;
11735;SDS011;5924;51.398;7.088;2023-05-10T09:59:30;31.53;;;15.53;;
11735;SDS011;5924;51.398;7.088;2023-05-10T10:01:59;31.17;;;15.27;;
11735;SDS011;5924;51.398;7.088;2023-05-10T10:04:25;32.87;;;15.90;;
11735;SDS011;5924;51.398;7.088;2023-05-10T10:07:03;33.93;;;15.43;;
11735;SDS011;5924;51.398;7.088;2023-05-10T10:09:31;25.80;;;14.57;;
11735;SDS011;5924;51.398;7.088;2023-05-10T10:15:22;28.23;;;14.10;;
11735;SDS011;5924;51.398;7.088;2023-05-10T10:17:49;31.93;;;14.90;;
11735;SDS011;5924;51.398;7.088;2023-05-10T10:20:16;28.40;;;14.80;;
11735;SDS011;5924;51.398;7.088;2023-05-10T10:22:42;27.00;;;13.77;;
11735;SDS011;5924;51.398;7.088;2023-05-10T10:25:09;27.80;;;13.15;;
11735;SDS011;5924;51.398;7.088;2023-05-10T10:27:56;23.60;;;12.40;;
11735;SDS011;5924;51.398;7.088;2023-05-10T10:30:43;21.10;;;12.27;;
11735;SDS011;5924;51.398;7.088;2023-05-10T10:33:18;20.07;;;12.53;;
11735;SDS011;5924;51.398;7.088;2023-05-10T10:35:52;22.87;;;11.70;;
11735;SDS011;5924;51.398;7.088;2023-05-10T10:38:18;19.00;;;12.52;;
11735;SDS011;5924;51.398;7.088;2023-05-10T10:40:46;23.50;;;13.43;;
11735;SDS011;5924;51.398;7.088;2023-05-10T10:51:38;14.87;;;10.80;;
11735;SDS011;5924;51.398;7.088;2023-05-10T10:54:10;21.93;;;10.70;;
11735;SDS011;5924;51.398;7.088;2023-05-10T10:56:39;22.10;;;11.50;;
11735;SDS011;5924;51.398;7.088;2023-05-10T10:59:09;19.00;;;10.37;;
11735;SDS011;5924;51.398;7.088;2023-05-10T11:01:35;12.30;;;10.00;;
11735;SDS011;5924;51.398;7.088;2023-05-10T11:06:30;19.57;;;11.53;;
11735;SDS011;5924;51.398;7.088;2023-05-10T11:09:21;17.03;;;11.67;;
11735;SDS011;5924;51.398;7.088;2023-05-10T11:11:52;20.10;;;12.17;;
11735;SDS011;5924;51.398;7.088;2023-05-10T11:14:26;18.20;;;11.60;;
11735;SDS011;5924;51.398;7.088;2023-05-10T11:16:56;19.27;;;11.18;;
11735;SDS011;5924;51.398;7.088;2023-05-10T11:19:22;23.40;;;12.00;;
11735;SDS011;5924;51.398;7.088;2023-05-10T11:24:30;20.23;;;11.50;;
11735;SDS011;5924;51.398;7.088;2023-05-10T11:26:59;19.10;;;11.77;;
11735;SDS011;5924;51.398;7.088;2023-05-10T11:29:25;25.43;;;14.43;;
11735;SDS011;5924;51.398;7.088;2023-05-10T11:31:51;23.27;;;15.33;;
11735;SDS011;5924;51.398;7.088;2023-05-10T11:34:26;28.30;;;15.00;;
11735;SDS011;5924;51.398;7.088;2023-05-10T11:36:55;23.43;;;13.93;;
11735;SDS011;5924;51.398;7.088;2023-05-10T11:39:25;19.90;;;12.23;;
11735;SDS011;5924;51.398;7.088;2023-05-10T11:41:55;23.88;;;14.70;;
11735;SDS011;5924;51.398;7.088;2023-05-10T11:44:21;23.60;;;14.20;;
11735;SDS011;5924;51.398;7.088;2023-05-10T11:46:47;19.47;;;13.50;;
11735;SDS011;5924;51.398;7.088;2023-05-10T11:49:14;21.73;;;12.97;;
11735;SDS011;5924;51.398;7.088;2023-05-10T11:51:40;21.73;;;11.80;;
11735;SDS011;5924;51.398;7.088;2023-05-10T11:54:08;23.33;;;11.77;;
11735;SDS011;5924;51.398;7.088;2023-05-10T11:56:36;16.23;;;10.67;;
11735;SDS011;5924;51.398;7.088;2023-05-10T11:59:05;15.63;;;10.93;;
11735;SDS011;5924;51.398;7.088;2023-05-10T12:01:31;16.55;;;9.95;;
11735;SDS011;5924;51.398;7.088;2023-05-10T12:03:57;12.90;;;9.67;;
11735;SDS011;5924;51.398;7.088;2023-05-10T12:06:29;11.90;;;9.00;;
11735;SDS011;5924;51.398;7.088;2023-05-10T12:08:56;12.80;;;9.43;;
11735;SDS011;5924;51.398;7.088;2023-05-10T12:11:26;13.80;;;10.53;;
11735;SDS011;5924;51.398;7.088;2023-05-10T12:13:53;17.23;;;12.00;;
11735;SDS011;5924;51.398;7.088;2023-05-10T12:16:20;17.30;;;11.73;;
11735;SDS011;5924;51.398;7.088;2023-05-10T12:18:48;20.40;;;11.60;;
11735;SDS011;5924;51.398;7.088;2023-05-10T12:21:18;15.17;;;10.60;;
11735;SDS011;5924;51.398;7.088;2023-05-10T12:23:46;16.35;;;11.65;;
11735;SDS011;5924;51.398;7.088;2023-05-10T12:26:13;17.27;;;10.67;;
11735;SDS011;5924;51.398;7.088;2023-05-10T12:28:39;16.53;;;11.27;;
11735;SDS011;5924;51.398;7.088;2023-05-10T12:31:05;15.23;;;9.80;;
11735;SDS011;5924;51.398;7.088;2023-05-10T12:33:42;11.57;;;10.37;;
11735;SDS011;5924;51.398;7.088;2023-05-10T12:36:09;17.43;;;12.00;;
11735;SDS011;5924;51.398;7.088;2023-05-10T12:38:40;13.20;;;11.07;;
11735;SDS011;5924;51.398;7.088;2023-05-10T12:41:08;15.97;;;10.40;;
11735;SDS011;5924;51.398;7.088;2023-05-10T12:43:36;14.45;;;10.23;;
11735;SDS011;5924;51.398;7.088;2023-05-10T12:46:10;11.63;;;8.90;;
11735;SDS011;5924;51.398;7.088;2023-05-10T12:48:37;15.23;;;9.80;;
11735;SDS011;5924;51.398;7.088;2023-05-10T12:51:04;13.83;;;11.83;;
11735;SDS011;5924;51.398;7.088;2023-05-10T12:53:33;15.13;;;11.65;;
11735;SDS011;5924;51.398;7.088;2023-05-10T12:55:59;14.27;;;10.67;;
11735;SDS011;5924;51.398;7.088;2023-05-10T12:58:25;12.53;;;10.10;;
11735;SDS011;5924;51.398;7.088;2023-05-10T13:00:50;13.40;;;10.90;;
11735;SDS011;5924;51.398;7.088;2023-05-10T13:03:16;13.10;;;10.13;;
11735;SDS011;5924;51.398;7.088;2023-05-10T13:05:42;19.67;;;11.70;;
11735;SDS011;5924;51.398;7.088;2023-05-10T13:08:08;13.27;;;10.70;;
11735;SDS011;5924;51.398;7.088;2023-05-10T13:10:33;13.27;;;10.80;;
11735;SDS011;5924;51.398;7.088;2023-05-10T13:12:59;17.33;;;10.20;;
11735;SDS011;5924;51.398;7.088;2023-05-10T13:15:25;11.90;;;9.30;;
11735;SDS011;5924;51.398;7.088;2023-05-10T13:17:52;11.00;;;9.53;;
11735;SDS011;5924;51.398;7.088;2023-05-10T13:20:18;10.10;;;9.20;;
11735;SDS011;5924;51.398;7.088;2023-05-10T13:22:44;14.50;;;10.30;;
11735;SDS011;5924;51.398;7.088;2023-05-10T13:25:10;10.00;;;9.10;;
11735;SDS011;5924;51.398;7.088;2023-05-10T13:27:36;10.13;;;8.90;;
11735;SDS011;5924;51.398;7.088;2023-05-10T13:30:02;9.00;;;8.10;;
11735;SDS011;5924;51.398;7.088;2023-05-10T13:32:29;6.93;;;6.33;;
11735;SDS011;5924;51.398;7.088;2023-05-10T13:34:55;6.83;;;6.33;;
11735;SDS011;5924;51.398;7.088;2023-05-10T13:37:20;5.93;;;5.40;;
11735;SDS011;5924;51.398;7.088;2023-05-10T13:39:47;6.07;;;5.67;;
11735;SDS011;5924;51.398;7.088;2023-05-10T13:42:13;6.80;;;6.23;;
11735;SDS011;5924;51.398;7.088;2023-05-10T13:44:38;6.57;;;6.07;;
11735;SDS011;5924;51.398;7.088;2023-05-10T13:47:05;5.97;;;5.45;;
11735;SDS011;5924;51.398;7.088;2023-05-10T13:49:31;6.47;;;6.00;;
11735;SDS011;5924;51.398;7.088;2023-05-10T13:51:56;6.32;;;5.88;;
11735;SDS011;5924;51.398;7.088;2023-05-10T13:54:23;6.10;;;4.90;;
11735;SDS011;5924;51.398;7.088;2023-05-10T13:56:49;5.70;;;5.20;;
11735;SDS011;5924;51.398;7.088;2023-05-10T13:59:14;5.73;;;5.43;;
11735;SDS011;5924;51.398;7.088;2023-05-10T14:01:41;10.93;;;5.67;;
11735;SDS011;5924;51.398;7.088;2023-05-10T14:04:07;6.00;;;5.40;;
11735;SDS011;5924;51.398;7.088;2023-05-10T14:06:35;10.30;;;5.40;;
11735;SDS011;5924;51.398;7.088;2023-05-10T14:09:01;5.43;;;5.10;;
11735;SDS011;5924;51.398;7.088;2023-05-10T14:11:28;5.88;;;5.38;;
11735;SDS011;5924;51.398;7.088;2023-05-10T14:13:53;5.40;;;5.10;;
11735;SDS011;5924;51.398;7.088;2023-05-10T14:16:19;4.97;;;4.57;;
11735;SDS011;5924;51.398;7.088;2023-05-10T14:18:45;5.53;;;5.17;;
11735;SDS011;5924;51.398;7.088;2023-05-10T14:21:11;5.20;;;4.90;;
11735;SDS011;5924;51.398;7.088;2023-05-10T14:23:38;6.37;;;5.87;;
11735;SDS011;5924;51.398;7.088;2023-05-10T14:26:04;6.47;;;6.07;;
11735;SDS011;5924;51.398;7.088;2023-05-10T14:28:30;10.05;;;6.30;;
11735;SDS011;5924;51.398;7.088;2023-05-10T14:30:55;6.83;;;6.33;;
11735;SDS011;5924;51.398;7.088;2023-05-10T14:33:21;6.93;;;6.37;;
11735;SDS011;5924;51.398;7.088;2023-05-10T14:35:47;7.03;;;6.53;;
11735;SDS011;5924;51.398;7.088;2023-05-10T14:38:13;7.47;;;6.88;;
11735;SDS011;5924;51.398;7.088;2023-05-10T14:40:39;8.20;;;7.40;;
11735;SDS011;5924;51.398;7.088;2023-05-10T14:43:05;7.00;;;6.50;;
11735;SDS011;5924;51.398;7.088;2023-05-10T14:45:30;7.13;;;6.60;;
11735;SDS011;5924;51.398;7.088;2023-05-10T14:47:56;6.70;;;6.30;;
11735;SDS011;5924;51.398;7.088;2023-05-10T14:50:23;8.73;;;7.00;;
11735;SDS011;5924;51.398;7.088;2023-05-10T14:52:48;7.90;;;7.30;;
11735;SDS011;5924;51.398;7.088;2023-05-10T14:55:15;7.20;;;6.70;;
11735;SDS011;5924;51.398;7.088;2023-05-10T14:57:41;6.77;;;6.27;;
11735;SDS011;5924;51.398;7.088;2023-05-10T15:00:07;6.83;;;6.43;;
11735;SDS011;5924;51.398;7.088;2023-05-10T15:02:33;6.93;;;6.40;;
11735;SDS011;5924;51.398;7.088;2023-05-10T15:04:58;5.70;;;5.40;;
11735;SDS011;5924;51.398;7.088;2023-05-10T15:07:24;6.00;;;5.60;;
11735;SDS011;5924;51.398;7.088;2023-05-10T15:09:50;6.63;;;6.10;;
11735;SDS011;5924;51.398;7.088;2023-05-10T15:12:17;7.03;;;6.50;;
11735;SDS011;5924;51.398;7.088;2023-05-10T15:14:43;5.90;;;5.60;;
11735;SDS011;5924;51.398;7.088;2023-05-10T15:17:08;6.50;;;6.10;;
11735;SDS011;5924;51.398;7.088;2023-05-10T15:19:35;6.73;;;6.23;;
11735;SDS011;5924;51.398;7.088;2023-05-10T15:22:01;7.67;;;7.00;;
11735;SDS011;5924;51.398;7.088;2023-05-10T15:24:27;9.10;;;8.30;;
11735;SDS011;5924;51.398;7.088;2023-05-10T15:26:53;7.90;;;7.20;;
11735;SDS011;5924;51.398;7.088;2023-05-10T15:29:19;7.10;;;6.50;;
11735;SDS011;5924;51.398;7.088;2023-05-10T15:31:48;9.93;;;7.50;;
11735;SDS011;5924;51.398;7.088;2023-05-10T15:34:15;10.55;;;8.95;;
11735;SDS011;5924;51.398;7.088;2023-05-10T15:36:42;11.33;;;9.63;;
11735;SDS011;5924;51.398;7.088;2023-05-10T15:39:08;9.23;;;7.70;;
11735;SDS011;5924;51.398;7.088;2023-05-10T15:41:36;10.73;;;8.60;;
11735;SDS011;5924;51.398;7.088;2023-05-10T15:44:02;9.77;;;8.63;;
11735;SDS011;5924;51.398;7.088;2023-05-10T15:46:28;12.80;;;8.75;;